Time,TemperatureF,DewpointF,PressureIn,WindDirection,WindDirectionDegrees,WindSpeedMPH,WindSpeedGustMPH,Humidity,HourlyPrecipIn,Conditions,Clouds,dailyrainin,SolarRadiationWatts/m^2,SoftwareType,DateUTC
2013-08-14 00:01:00,58.0,35.0,-100.00,North,6,4.0,9.0,42,0.00,,,0.03,0.000000,,2013-08-14 06:01:00,
2013-08-14 00:42:00,58.0,31.0,-100.00,North,6,6.0,8.0,36,0.00,,,0.03,0.000000,,2013-08-14 06:42:00,
2013-08-14 00:52:00,58.0,31.0,-100.00,North,6,6.0,8.0,36,0.00,,,0.03,0.000000,,2013-08-14 06:52:00,
2013-08-14 01:01:00,58.0,31.0,-100.00,North,6,6.0,8.0,36,0.00,,,0.03,0.000000,,2013-08-14 07:01:00,
2013-08-14 01:42:00,58.0,31.0,-100.00,North,354,6.0,8.0,36,0.00,,,0.03,0.000000,,2013-08-14 07:42:00,
2013-08-14 01:52:00,58.0,31.0,-100.00,North,354,6.0,8.0,36,0.00,,,0.03,0.000000,,2013-08-14 07:52:00,
2013-08-14 02:01:00,58.0,31.0,-100.00,North,354,6.0,8.0,36,0.00,,,0.03,0.000000,,2013-08-14 08:01:00,
2013-08-14 02:42:00,57.0,30.0,-100.00,NNW,346,8.0,10.0,36,0.00,,,0.03,0.000000,,2013-08-14 08:42:00,
2013-08-14 02:52:00,57.0,30.0,-100.00,NNW,346,8.0,10.0,36,0.00,,,0.03,0.000000,,2013-08-14 08:52:00,
2013-08-14 03:02:00,57.0,30.0,-100.00,NNW,346,8.0,10.0,36,0.00,,,0.03,0.000000,,2013-08-14 09:02:00,
2013-08-14 03:43:00,56.0,31.0,-100.00,North,359,6.0,8.0,38,0.00,,,0.03,0.000000,,2013-08-14 09:43:00,
2013-08-14 04:42:00,57.0,32.0,-100.00,North,354,4.0,7.0,38,0.00,,,0.03,0.000000,,2013-08-14 10:42:00,
2013-08-14 04:52:00,57.0,32.0,-100.00,North,354,4.0,7.0,38,0.00,,,0.03,0.000000,,2013-08-14 10:52:00,
2013-08-14 05:02:00,57.0,32.0,-100.00,North,354,4.0,7.0,38,0.00,,,0.03,0.000000,,2013-08-14 11:02:00,
2013-08-14 05:42:00,55.0,32.0,-100.00,NNE,15,7.0,10.0,41,0.00,,,0.03,0.000000,,2013-08-14 11:42:00,
2013-08-14 05:52:00,55.0,32.0,-100.00,NNE,15,7.0,10.0,41,0.00,,,0.03,0.000000,,2013-08-14 11:52:00,
2013-08-14 06:01:00,55.0,32.0,-100.00,NNE,15,7.0,10.0,41,0.00,,,0.03,0.000000,,2013-08-14 12:01:00,
2013-08-14 06:42:00,56.0,31.0,-100.00,North,1,4.0,9.0,38,-99.99,,,0.03,0.000000,,2013-08-14 12:42:00,
2013-08-14 06:52:00,56.0,31.0,-100.00,North,1,4.0,9.0,38,-99.99,,,0.03,0.000000,,2013-08-14 12:52:00,
2013-08-14 07:02:00,56.0,31.0,-100.00,North,1,4.0,9.0,38,-99.99,,,0.03,0.000000,,2013-08-14 13:02:00,
2013-08-14 07:42:00,56.0,32.0,-100.00,North,351,8.0,10.0,40,-99.99,,,0.03,9.000000,,2013-08-14 13:42:00,
2013-08-14 11:44:00,70.0,35.0,-100.00,SSW,203,7.0,10.0,28,-99.99,,,0.03,729.000000,,2013-08-14 17:44:00,
2013-08-14 11:55:00,70.0,35.0,-100.00,SSW,203,7.0,10.0,28,-99.99,,,0.03,729.000000,,2013-08-14 17:55:00,
2013-08-14 12:04:00,70.0,35.0,-100.00,SSW,203,7.0,10.0,28,-99.99,,,0.03,729.000000,,2013-08-14 18:04:00,
2013-08-14 12:59:00,75.0,35.0,-100.00,South,172,5.0,12.0,23,0.00,,,0.03,876.000000,,2013-08-14 18:59:00,
2013-08-14 13:42:00,76.0,29.0,-100.00,SW,226,8.0,18.0,18,0.00,,,0.03,896.000000,,2013-08-14 19:42:00,
2013-08-14 13:54:00,76.0,29.0,-100.00,SW,226,8.0,18.0,18,0.00,,,0.03,896.000000,,2013-08-14 19:54:00,
2013-08-14 14:03:00,76.0,29.0,-100.00,SW,226,8.0,18.0,18,0.00,,,0.03,896.000000,,2013-08-14 20:03:00,
2013-08-14 14:49:00,78.0,31.0,-100.00,West,263,7.0,20.0,18,0.00,,,0.03,972.000000,,2013-08-14 20:49:00,
2013-08-14 15:05:00,78.0,31.0,-100.00,West,263,7.0,20.0,18,0.00,,,0.03,972.000000,,2013-08-14 21:05:00,
2013-08-14 15:45:00,79.0,32.0,-100.00,SW,236,8.0,17.0,18,0.00,,,0.03,933.000000,,2013-08-14 21:45:00,
2013-08-14 15:55:00,79.0,32.0,-100.00,SW,236,8.0,17.0,18,0.00,,,0.03,933.000000,,2013-08-14 21:55:00,
2013-08-14 16:04:00,79.0,32.0,-100.00,SW,236,8.0,17.0,18,0.00,,,0.03,933.000000,,2013-08-14 22:04:00,
2013-08-14 16:44:00,79.0,32.0,-100.00,NW,312,8.0,18.0,18,0.00,,,0.03,738.000000,,2013-08-14 22:44:00,
2013-08-14 16:54:00,79.0,32.0,-100.00,NW,312,8.0,18.0,18,0.00,,,0.03,738.000000,,2013-08-14 22:54:00,
2013-08-14 17:04:00,79.0,32.0,-100.00,NW,312,8.0,18.0,18,0.00,,,0.03,738.000000,,2013-08-14 23:04:00,
2013-08-14 17:46:00,79.0,32.0,-100.00,NNW,336,9.0,19.0,18,0.00,,,0.03,803.000000,,2013-08-14 23:46:00,
2013-08-14 17:56:00,79.0,32.0,-100.00,NNW,336,9.0,19.0,18,0.00,,,0.03,803.000000,,2013-08-14 23:56:00,
2013-08-14 18:02:00,79.0,32.0,-100.00,NNW,336,9.0,19.0,18,0.00,,,0.03,803.000000,,2013-08-15 00:02:00,
2013-08-14 18:43:00,77.0,32.0,-100.00,WNW,287,9.0,16.0,19,0.00,,,0.03,440.000000,,2013-08-15 00:43:00,
2013-08-14 18:52:00,77.0,32.0,-100.00,WNW,287,9.0,16.0,19,0.00,,,0.03,440.000000,,2013-08-15 00:52:00,
2013-08-14 19:01:00,77.0,32.0,-100.00,WNW,287,9.0,16.0,19,0.00,,,0.03,440.000000,,2013-08-15 01:01:00,
2013-08-14 19:42:00,75.0,31.0,-100.00,NW,325,8.0,14.0,20,0.00,,,0.00,274.000000,,2013-08-15 01:42:00,
2013-08-14 19:52:00,75.0,31.0,-100.00,NW,325,8.0,14.0,20,0.00,,,0.00,274.000000,,2013-08-15 01:52:00,
2013-08-14 20:01:00,75.0,31.0,-100.00,NW,325,8.0,14.0,20,0.00,,,0.00,274.000000,,2013-08-15 02:01:00,
2013-08-14 20:52:00,72.0,32.0,-100.00,North,349,7.0,9.0,23,0.00,,,0.00,91.000000,,2013-08-15 02:52:00,
2013-08-14 21:02:00,72.0,32.0,-100.00,North,349,7.0,9.0,23,0.00,,,0.00,91.000000,,2013-08-15 03:02:00,
2013-08-14 21:43:00,69.0,31.0,-100.00,North,7,10.0,14.0,24,0.00,,,0.00,8.000000,,2013-08-15 03:43:00,
2013-08-14 21:53:00,69.0,31.0,-100.00,North,7,10.0,14.0,24,0.00,,,0.00,8.000000,,2013-08-15 03:53:00,
2013-08-14 22:03:00,69.0,31.0,-100.00,North,7,10.0,14.0,24,0.00,,,0.00,8.000000,,2013-08-15 04:03:00,
2013-08-14 22:43:00,67.0,31.0,-100.00,North,4,9.0,17.0,26,0.00,,,0.00,0.000000,,2013-08-15 04:43:00,
2013-08-14 22:52:00,67.0,31.0,-100.00,North,4,9.0,17.0,26,0.00,,,0.00,0.000000,,2013-08-15 04:52:00,
2013-08-14 23:02:00,67.0,31.0,-100.00,North,4,9.0,17.0,26,0.00,,,0.00,0.000000,,2013-08-15 05:02:00,
2013-08-14 23:42:00,65.0,31.0,-100.00,North,8,10.0,15.0,28,0.00,,,0.00,0.000000,,2013-08-15 05:42:00,
2013-08-14 23:52:00,65.0,31.0,-100.00,North,8,10.0,15.0,28,0.00,,,0.00,0.000000,,2013-08-15 05:52:00,